Airfield :
LOGIN :

Register | Disclaimer

   EN    FR    IT 

 










Legend :    VFR   Marginal VFR   IFR   Intensive IFR   Very Intensive IFR
Visi :
Ceiling :
>= 8 km
>= 3000ft
5 to 8 km
1000 to 3000 ft
1500m to 5 km
500 to 1000 ft
800 to 1500m
200 to 500 ft
< 800m
< 200 ft
Symbols :   Thunderstorms  Fog  Heavy snow  Heavy precipitations  Wind > 20 kt
SIGMETs :     Misc.  Thunderstorms  Icing  Turbulence  Mountain Waves  Volcanic Ashes






- Airport Elevation : 1325 ft
- IATA code : EBU


LFMH - St-Etienne Boutheon

CURRENT METAR :
  • 130930Z AUTO VRB03KT 9999 FEW024 BKN240 18/13 Q1016

EXPIRED METARs :
  • 130900Z AUTO 33004KT 290V020 9999 FEW022 OVC240 17/12 Q1016
  • 130830Z AUTO VRB04KT 9999 SCT022 SCT048 BKN240 17/12 Q1016
  • 130800Z AUTO 32003KT 250V020 9999 OVC046 16/11 Q1016
  • 130730Z AUTO VRB02KT 9999 FEW016 BKN041 15/11 Q1017
  • 130700Z AUTO VRB03KT 9999 FEW014 15/11 Q1017
  • 130630Z AUTO VRB03KT 9999 SCT010 14/12 Q1017
  • 130600Z AUTO VRB03KT 9999 FEW005 13/12 Q1016
  • 130530Z AUTO VRB03KT CAVOK 12/12 Q1016
  • 130500Z AUTO 18003KT 8000 FEW010 11/11 Q1016

Expired Forecast.
ATIS : +33 4 77 36 17 51



MET'MAP, your aeronautical weather chart ! - Copyright ORBIFLY December 2007 - Disclaimer

ORBIFLY MET'MAP TEAM :

Programming & Development : Alexandra Zaïnal
Original concept : Baudouin d'Aumeries
Technical & hardware support : Manuel Goepfert
Assistance : Marc-Olivier Méhu




SOURCES & CREDITS :

   NOAA